CYVP

Kuujjuaq Airport

Kuujjuaq, Quebec, Canada
METAR CYVP 240400Z 31004KT 15SM -SN BKN046 M11/M13 A3030 RMK SC6 SLP267
Observed Flight Rules
Oct-24 @ 04:00 UTC (an hour ago) Visual Flight Rules
Wind Visibility Clouds Conditions
310° at 4 knots 15 miles
  • Broken at 4,600' AGL
  • Light Snow
Temperatures Readings
Current -11°C / 12°F
Dewpoint -13°C / 9°F
Humidity 85%
Altimeter 30.3" Hg
Pressure 1026.7 hPa
Elevation 60
METAR CYVP 240400Z 31004KT 15SM -SN BKN046 M11/M13 A3030 RMK SC6 SLP267
Observed Flight Rules
Oct-24 @ 04:00 UTC
(an hour ago)
VFR
Wind Visibility
310° at 4 knots 15 miles
Clouds
  • Broken at 4,600' AGL
Conditions
  • Light Snow
Temperature Dewpoint
-11°C / 12°F -13°C / 9°F
Humidity Altimeter Pressure
85% 30.3" Hg 1026.7 hPa